LGLM

Lemnos International Airport

Airport
ICAO code
LGLM
IATA Code
LXS
Summary
ICAO Region
EUR
ICAO Territory
Location

Gravia, Lemnos

Serving
Lemnos
Elevation
14 ft
Coordinates
39° 55' 7" N , 25° 14' 10" E
KCC
Metar
Observation
LGLM 272020Z 00000KT 9999 FEW015 13/11 Q1000
Station
Limnos Airport
Date/Time
2023-03-27 20:20:00
Wind direction
Wind speed
00 kts
Lowest cloud amount
few clouds
Temperature
13°C
Dew point
11°C
Humidity
87%
QNH
1000 hPa
Weather condition
n/a

Lemnos International Airport "Hephaestus" is an airport on Lemnos Island, Greece.

Climatology

Warm mediterranean climate (Köppen climate classification Csa)

Runways

Designator Length Width Surface Rops
04R/22L 3016 45 ASP Yes/Yes

Airport map

Aerial View

SKYbrary Partners:

Safety knowledge contributed by: